Airfield :
LOGIN :

Register | Disclaimer

   EN    FR    IT 

 










Legend :    VFR   Marginal VFR   IFR   Intensive IFR   Very Intensive IFR
Visi :
Ceiling :
>= 8 km
>= 3000ft
5 to 8 km
1000 to 3000 ft
1500m to 5 km
500 to 1000 ft
800 to 1500m
200 to 500 ft
< 800m
< 200 ft
Symbols :   Thunderstorms  Fog  Heavy snow  Heavy precipitations  Wind > 20 kt
SIGMETs :     Misc.  Thunderstorms  Icing  Turbulence  Mountain Waves  Volcanic Ashes






- Airport Elevation : 27 ft
- IATA code : PMI


LEPA - Palma de Mallorca

CURRENT METAR :
  • 231600Z 07012KT 9999 FEW055 19/08 Q1019 NOSIG

EXPIRED METARs :
  • 231530Z 07012KT 9999 FEW055 20/08 Q1019 NOSIG
  • 231500Z 07013KT 9999 FEW055 21/09 Q1019 NOSIG
  • 231430Z 08011KT 040V140 9999 FEW045 21/09 Q1019 NOSIG
  • 231400Z 07012KT 030V110 9999 FEW045 21/10 Q1019 NOSIG
  • 231330Z 07013KT 020V100 9999 FEW045 22/10 Q1019 NOSIG

TAF AMD TAF LEPA
Valid from the 23 at 13:00 until the 24 at 12:00 UTC


231339Z 2313/2412 06012KT 9999 FEW040 TX21/2412Z TN15/2406Z
TEMPO 2313/2314 06015G25KT
BECMG 2314/2317 03010KT
BECMG 2318/2320 VRB03KT
PROB30
TEMPO 2320/2412 4000 SHRA FEW030TCU BKN035
BECMG 2409/2411 36010KT



MET'MAP, your aeronautical weather chart ! - Copyright ORBIFLY December 2007 - Disclaimer

ORBIFLY MET'MAP TEAM :

Programming & Development : Alexandra Zaïnal
Concept & original design : Baudouin d'Aumeries
Assistance for programming : Marc-Olivier Méhu
Technical & hardware support : Manuel Goepfert

Contact : metmap@orbifly.com




SOURCES & CREDITS :

   NOAA